sensor_id;sensor_type;location;lat;lon;timestamp;temperature;humidity
23335;DHT22;11839;48.598;8.870;2023-02-05T00:01:25;6.40;99.90
23335;DHT22;11839;48.598;8.870;2023-02-05T00:03:52;6.30;99.90
23335;DHT22;11839;48.598;8.870;2023-02-05T00:06:19;6.30;99.90
23335;DHT22;11839;48.598;8.870;2023-02-05T00:08:46;6.60;99.90
23335;DHT22;11839;48.598;8.870;2023-02-05T00:11:14;6.40;99.90
23335;DHT22;11839;48.598;8.870;2023-02-05T00:13:41;6.60;99.90
23335;DHT22;11839;48.598;8.870;2023-02-05T00:16:08;6.70;99.90
23335;DHT22;11839;48.598;8.870;2023-02-05T00:18:35;6.80;99.90
23335;DHT22;11839;48.598;8.870;2023-02-05T00:21:03;6.80;99.90
23335;DHT22;11839;48.598;8.870;2023-02-05T00:23:30;6.80;99.90
23335;DHT22;11839;48.598;8.870;2023-02-05T00:25:57;6.90;99.90
23335;DHT22;11839;48.598;8.870;2023-02-05T00:28:25;6.70;99.90
23335;DHT22;11839;48.598;8.870;2023-02-05T00:30:52;6.60;99.90
23335;DHT22;11839;48.598;8.870;2023-02-05T00:33:18;6.50;99.90
23335;DHT22;11839;48.598;8.870;2023-02-05T00:35:46;6.50;99.90
23335;DHT22;11839;48.598;8.870;2023-02-05T00:38:13;6.50;99.90
23335;DHT22;11839;48.598;8.870;2023-02-05T00:40:40;6.20;99.90
23335;DHT22;11839;48.598;8.870;2023-02-05T00:43:07;6.30;99.90
23335;DHT22;11839;48.598;8.870;2023-02-05T00:45:35;6.00;99.90
23335;DHT22;11839;48.598;8.870;2023-02-05T00:48:02;5.80;99.90
23335;DHT22;11839;48.598;8.870;2023-02-05T00:50:29;6.00;99.90
23335;DHT22;11839;48.598;8.870;2023-02-05T00:52:56;6.00;99.90
23335;DHT22;11839;48.598;8.870;2023-02-05T00:55:23;6.10;99.90
23335;DHT22;11839;48.598;8.870;2023-02-05T00:57:49;6.20;99.90
23335;DHT22;11839;48.598;8.870;2023-02-05T01:00:17;6.20;99.90
23335;DHT22;11839;48.598;8.870;2023-02-05T01:02:45;6.10;99.90
23335;DHT22;11839;48.598;8.870;2023-02-05T01:05:12;6.00;99.90
23335;DHT22;11839;48.598;8.870;2023-02-05T01:07:39;6.00;99.90
23335;DHT22;11839;48.598;8.870;2023-02-05T01:10:06;5.90;99.90
23335;DHT22;11839;48.598;8.870;2023-02-05T01:12:33;5.90;99.90
23335;DHT22;11839;48.598;8.870;2023-02-05T01:15:00;6.00;99.90
23335;DHT22;11839;48.598;8.870;2023-02-05T01:17:27;6.10;99.90
23335;DHT22;11839;48.598;8.870;2023-02-05T01:19:55;5.90;99.90
23335;DHT22;11839;48.598;8.870;2023-02-05T01:22:22;5.90;99.90
23335;DHT22;11839;48.598;8.870;2023-02-05T01:24:49;5.60;99.90
23335;DHT22;11839;48.598;8.870;2023-02-05T01:27:16;5.40;99.90
23335;DHT22;11839;48.598;8.870;2023-02-05T01:29:43;5.30;99.90
23335;DHT22;11839;48.598;8.870;2023-02-05T01:32:09;5.30;99.90
23335;DHT22;11839;48.598;8.870;2023-02-05T01:34:36;5.40;99.90
23335;DHT22;11839;48.598;8.870;2023-02-05T01:37:04;5.50;99.90
23335;DHT22;11839;48.598;8.870;2023-02-05T01:39:31;5.60;99.90
23335;DHT22;11839;48.598;8.870;2023-02-05T01:41:58;5.20;99.90
23335;DHT22;11839;48.598;8.870;2023-02-05T01:44:24;4.80;99.90
23335;DHT22;11839;48.598;8.870;2023-02-05T01:46:54;5.00;99.90
23335;DHT22;11839;48.598;8.870;2023-02-05T01:49:23;4.70;99.90
23335;DHT22;11839;48.598;8.870;2023-02-05T01:51:54;4.70;99.90
23335;DHT22;11839;48.598;8.870;2023-02-05T01:54:24;4.80;99.90
23335;DHT22;11839;48.598;8.870;2023-02-05T01:56:54;4.60;99.90
23335;DHT22;11839;48.598;8.870;2023-02-05T01:59:26;4.30;99.90
23335;DHT22;11839;48.598;8.870;2023-02-05T02:01:54;4.20;99.90
23335;DHT22;11839;48.598;8.870;2023-02-05T02:04:31;3.90;99.90
23335;DHT22;11839;48.598;8.870;2023-02-05T02:07:00;4.00;99.90
23335;DHT22;11839;48.598;8.870;2023-02-05T02:09:29;4.30;99.90
23335;DHT22;11839;48.598;8.870;2023-02-05T02:11:57;4.10;99.90
23335;DHT22;11839;48.598;8.870;2023-02-05T02:14:25;4.20;99.90
23335;DHT22;11839;48.598;8.870;2023-02-05T02:16:55;4.10;99.90
23335;DHT22;11839;48.598;8.870;2023-02-05T02:19:27;4.10;99.90
23335;DHT22;11839;48.598;8.870;2023-02-05T02:22:13;4.30;99.90
23335;DHT22;11839;48.598;8.870;2023-02-05T02:25:10;4.60;99.90
23335;DHT22;11839;48.598;8.870;2023-02-05T02:27:48;4.70;99.90
23335;DHT22;11839;48.598;8.870;2023-02-05T02:30:21;4.90;99.90
23335;DHT22;11839;48.598;8.870;2023-02-05T02:32:55;4.70;99.90
23335;DHT22;11839;48.598;8.870;2023-02-05T02:35:27;4.40;99.90
23335;DHT22;11839;48.598;8.870;2023-02-05T02:38:00;4.10;99.90
23335;DHT22;11839;48.598;8.870;2023-02-05T02:40:34;4.50;99.90
23335;DHT22;11839;48.598;8.870;2023-02-05T02:43:07;4.70;99.90
23335;DHT22;11839;48.598;8.870;2023-02-05T02:45:37;4.50;99.90
23335;DHT22;11839;48.598;8.870;2023-02-05T02:48:07;4.30;99.90
23335;DHT22;11839;48.598;8.870;2023-02-05T02:50:36;4.00;99.90
23335;DHT22;11839;48.598;8.870;2023-02-05T02:53:09;4.00;99.90
23335;DHT22;11839;48.598;8.870;2023-02-05T02:55:39;4.00;99.90
23335;DHT22;11839;48.598;8.870;2023-02-05T02:58:14;4.10;99.90
23335;DHT22;11839;48.598;8.870;2023-02-05T03:00:43;4.40;99.90
23335;DHT22;11839;48.598;8.870;2023-02-05T03:03:13;4.40;99.90
23335;DHT22;11839;48.598;8.870;2023-02-05T03:05:42;3.90;99.90
23335;DHT22;11839;48.598;8.870;2023-02-05T03:08:13;3.90;99.90
23335;DHT22;11839;48.598;8.870;2023-02-05T03:10:44;3.80;99.90
23335;DHT22;11839;48.598;8.870;2023-02-05T03:13:13;4.00;99.90
23335;DHT22;11839;48.598;8.870;2023-02-05T03:15:42;4.20;99.90
23335;DHT22;11839;48.598;8.870;2023-02-05T03:18:10;4.30;99.90
23335;DHT22;11839;48.598;8.870;2023-02-05T03:20:41;4.30;99.90
23335;DHT22;11839;48.598;8.870;2023-02-05T03:23:10;4.00;99.90
23335;DHT22;11839;48.598;8.870;2023-02-05T03:25:37;4.20;99.90
23335;DHT22;11839;48.598;8.870;2023-02-05T03:28:04;4.10;99.90
23335;DHT22;11839;48.598;8.870;2023-02-05T03:30:41;4.10;99.90
23335;DHT22;11839;48.598;8.870;2023-02-05T03:33:19;4.10;99.90
23335;DHT22;11839;48.598;8.870;2023-02-05T03:35:54;4.20;99.90
23335;DHT22;11839;48.598;8.870;2023-02-05T03:38:32;4.20;99.90
23335;DHT22;11839;48.598;8.870;2023-02-05T03:41:13;4.20;99.90
23335;DHT22;11839;48.598;8.870;2023-02-05T03:43:49;4.20;99.90
23335;DHT22;11839;48.598;8.870;2023-02-05T03:46:29;4.30;99.90
23335;DHT22;11839;48.598;8.870;2023-02-05T03:49:04;4.40;99.90
23335;DHT22;11839;48.598;8.870;2023-02-05T03:51:37;4.30;99.90
23335;DHT22;11839;48.598;8.870;2023-02-05T03:54:10;4.10;99.90
23335;DHT22;11839;48.598;8.870;2023-02-05T03:56:44;4.10;99.90
23335;DHT22;11839;48.598;8.870;2023-02-05T03:59:13;4.20;99.90
23335;DHT22;11839;48.598;8.870;2023-02-05T04:01:43;4.10;99.90
23335;DHT22;11839;48.598;8.870;2023-02-05T04:04:11;4.00;99.90
23335;DHT22;11839;48.598;8.870;2023-02-05T04:06:38;4.00;99.90
23335;DHT22;11839;48.598;8.870;2023-02-05T04:09:05;3.60;99.90
23335;DHT22;11839;48.598;8.870;2023-02-05T04:11:32;3.70;99.90
23335;DHT22;11839;48.598;8.870;2023-02-05T04:13:59;3.70;99.90
23335;DHT22;11839;48.598;8.870;2023-02-05T04:16:26;3.50;99.90
23335;DHT22;11839;48.598;8.870;2023-02-05T04:18:54;3.50;99.90
23335;DHT22;11839;48.598;8.870;2023-02-05T04:21:20;3.50;99.90
23335;DHT22;11839;48.598;8.870;2023-02-05T04:23:47;3.30;99.90
23335;DHT22;11839;48.598;8.870;2023-02-05T04:26:14;3.10;99.90
23335;DHT22;11839;48.598;8.870;2023-02-05T04:28:41;3.30;99.90
23335;DHT22;11839;48.598;8.870;2023-02-05T04:31:08;3.50;99.90
23335;DHT22;11839;48.598;8.870;2023-02-05T04:33:36;3.50;99.90
23335;DHT22;11839;48.598;8.870;2023-02-05T04:36:05;3.20;99.90
23335;DHT22;11839;48.598;8.870;2023-02-05T04:38:32;3.20;99.90
23335;DHT22;11839;48.598;8.870;2023-02-05T04:40:58;3.00;99.90
23335;DHT22;11839;48.598;8.870;2023-02-05T04:43:25;2.90;99.90
23335;DHT22;11839;48.598;8.870;2023-02-05T04:45:52;2.90;99.90
23335;DHT22;11839;48.598;8.870;2023-02-05T04:48:19;2.80;99.90
23335;DHT22;11839;48.598;8.870;2023-02-05T04:50:46;3.00;99.90
23335;DHT22;11839;48.598;8.870;2023-02-05T04:53:14;3.10;99.90
23335;DHT22;11839;48.598;8.870;2023-02-05T04:55:41;3.10;99.90
23335;DHT22;11839;48.598;8.870;2023-02-05T04:58:08;3.00;99.90
23335;DHT22;11839;48.598;8.870;2023-02-05T05:00:35;3.50;99.90
23335;DHT22;11839;48.598;8.870;2023-02-05T05:03:02;3.70;99.90
23335;DHT22;11839;48.598;8.870;2023-02-05T05:05:28;3.60;99.90
23335;DHT22;11839;48.598;8.870;2023-02-05T05:07:55;3.60;99.90
23335;DHT22;11839;48.598;8.870;2023-02-05T05:10:25;3.60;99.90
23335;DHT22;11839;48.598;8.870;2023-02-05T05:12:52;3.90;99.90
23335;DHT22;11839;48.598;8.870;2023-02-05T05:15:19;3.30;99.90
23335;DHT22;11839;48.598;8.870;2023-02-05T05:17:45;3.60;99.90
23335;DHT22;11839;48.598;8.870;2023-02-05T05:20:12;3.80;99.90
23335;DHT22;11839;48.598;8.870;2023-02-05T05:22:39;3.90;99.90
23335;DHT22;11839;48.598;8.870;2023-02-05T05:25:06;3.90;99.90
23335;DHT22;11839;48.598;8.870;2023-02-05T05:27:34;4.30;99.90
23335;DHT22;11839;48.598;8.870;2023-02-05T05:30:01;4.40;99.90
23335;DHT22;11839;48.598;8.870;2023-02-05T05:32:28;4.20;99.90
23335;DHT22;11839;48.598;8.870;2023-02-05T05:34:55;4.40;99.90
23335;DHT22;11839;48.598;8.870;2023-02-05T05:37:22;4.60;99.90
23335;DHT22;11839;48.598;8.870;2023-02-05T05:39:48;4.60;99.90
23335;DHT22;11839;48.598;8.870;2023-02-05T05:42:34;4.70;99.90
23335;DHT22;11839;48.598;8.870;2023-02-05T05:45:18;4.50;99.90
23335;DHT22;11839;48.598;8.870;2023-02-05T05:47:45;4.50;99.90
23335;DHT22;11839;48.598;8.870;2023-02-05T05:50:12;4.50;99.90
23335;DHT22;11839;48.598;8.870;2023-02-05T05:52:38;4.60;99.90
23335;DHT22;11839;48.598;8.870;2023-02-05T05:55:06;4.70;99.90
23335;DHT22;11839;48.598;8.870;2023-02-05T05:57:34;4.40;99.90
23335;DHT22;11839;48.598;8.870;2023-02-05T06:00:01;3.90;99.90
23335;DHT22;11839;48.598;8.870;2023-02-05T06:02:28;3.60;99.90
23335;DHT22;11839;48.598;8.870;2023-02-05T06:04:54;3.80;99.90
23335;DHT22;11839;48.598;8.870;2023-02-05T06:07:21;3.80;99.90
23335;DHT22;11839;48.598;8.870;2023-02-05T06:09:48;4.00;99.90
23335;DHT22;11839;48.598;8.870;2023-02-05T06:12:15;4.20;99.90
23335;DHT22;11839;48.598;8.870;2023-02-05T06:14:43;4.20;99.90
23335;DHT22;11839;48.598;8.870;2023-02-05T06:17:10;4.00;99.90
23335;DHT22;11839;48.598;8.870;2023-02-05T06:19:36;3.70;99.90
23335;DHT22;11839;48.598;8.870;2023-02-05T06:22:03;3.80;99.90
23335;DHT22;11839;48.598;8.870;2023-02-05T06:24:30;4.20;99.90
23335;DHT22;11839;48.598;8.870;2023-02-05T06:26:57;4.40;99.90
23335;DHT22;11839;48.598;8.870;2023-02-05T06:29:24;4.60;99.90
23335;DHT22;11839;48.598;8.870;2023-02-05T06:31:52;4.50;99.90
23335;DHT22;11839;48.598;8.870;2023-02-05T06:34:18;4.50;99.90
23335;DHT22;11839;48.598;8.870;2023-02-05T06:36:45;4.30;99.90
23335;DHT22;11839;48.598;8.870;2023-02-05T06:39:12;4.30;99.90
23335;DHT22;11839;48.598;8.870;2023-02-05T06:41:39;4.50;99.90
23335;DHT22;11839;48.598;8.870;2023-02-05T06:44:05;4.70;99.90
23335;DHT22;11839;48.598;8.870;2023-02-05T06:46:32;4.60;99.90
23335;DHT22;11839;48.598;8.870;2023-02-05T06:49:00;4.60;99.90
23335;DHT22;11839;48.598;8.870;2023-02-05T06:51:27;4.40;99.90
23335;DHT22;11839;48.598;8.870;2023-02-05T06:53:54;4.50;99.90
23335;DHT22;11839;48.598;8.870;2023-02-05T06:56:21;4.40;99.90
23335;DHT22;11839;48.598;8.870;2023-02-05T06:58:48;4.40;99.90
23335;DHT22;11839;48.598;8.870;2023-02-05T07:01:15;4.50;99.90
23335;DHT22;11839;48.598;8.870;2023-02-05T07:03:42;4.60;99.90
23335;DHT22;11839;48.598;8.870;2023-02-05T07:06:10;4.40;99.90
23335;DHT22;11839;48.598;8.870;2023-02-05T07:08:37;4.20;99.90
23335;DHT22;11839;48.598;8.870;2023-02-05T07:11:04;4.10;99.90
23335;DHT22;11839;48.598;8.870;2023-02-05T07:13:31;4.40;99.90
23335;DHT22;11839;48.598;8.870;2023-02-05T07:16:01;4.60;99.90
23335;DHT22;11839;48.598;8.870;2023-02-05T07:18:29;4.70;99.90
23335;DHT22;11839;48.598;8.870;2023-02-05T07:20:55;4.80;99.90
23335;DHT22;11839;48.598;8.870;2023-02-05T07:23:24;4.80;99.90
23335;DHT22;11839;48.598;8.870;2023-02-05T07:25:50;4.90;99.90
23335;DHT22;11839;48.598;8.870;2023-02-05T07:28:17;5.00;99.90
23335;DHT22;11839;48.598;8.870;2023-02-05T07:30:44;5.10;99.90
23335;DHT22;11839;48.598;8.870;2023-02-05T07:33:12;5.10;99.90
23335;DHT22;11839;48.598;8.870;2023-02-05T07:35:39;4.70;99.90
23335;DHT22;11839;48.598;8.870;2023-02-05T07:38:05;5.30;99.90
23335;DHT22;11839;48.598;8.870;2023-02-05T07:40:35;4.90;99.90
23335;DHT22;11839;48.598;8.870;2023-02-05T07:43:02;4.90;99.90
23335;DHT22;11839;48.598;8.870;2023-02-05T07:45:29;5.10;99.90
23335;DHT22;11839;48.598;8.870;2023-02-05T07:47:56;5.10;99.90
23335;DHT22;11839;48.598;8.870;2023-02-05T07:50:22;5.00;99.90
23335;DHT22;11839;48.598;8.870;2023-02-05T07:52:49;4.90;99.90
23335;DHT22;11839;48.598;8.870;2023-02-05T07:55:16;4.90;99.90
23335;DHT22;11839;48.598;8.870;2023-02-05T07:57:44;4.60;99.90
23335;DHT22;11839;48.598;8.870;2023-02-05T08:00:12;4.60;99.90
23335;DHT22;11839;48.598;8.870;2023-02-05T08:02:39;4.60;99.90
23335;DHT22;11839;48.598;8.870;2023-02-05T08:05:06;4.80;99.90
23335;DHT22;11839;48.598;8.870;2023-02-05T08:07:33;4.70;99.90
23335;DHT22;11839;48.598;8.870;2023-02-05T08:10:01;4.80;99.90
23335;DHT22;11839;48.598;8.870;2023-02-05T08:12:28;4.70;99.90
23335;DHT22;11839;48.598;8.870;2023-02-05T08:14:57;4.70;99.90
23335;DHT22;11839;48.598;8.870;2023-02-05T08:17:23;4.60;99.90
23335;DHT22;11839;48.598;8.870;2023-02-05T08:19:50;4.50;99.90
23335;DHT22;11839;48.598;8.870;2023-02-05T08:22:17;4.60;99.90
23335;DHT22;11839;48.598;8.870;2023-02-05T08:24:43;4.50;99.90
23335;DHT22;11839;48.598;8.870;2023-02-05T08:27:10;4.40;99.90
23335;DHT22;11839;48.598;8.870;2023-02-05T08:29:37;4.40;99.90
23335;DHT22;11839;48.598;8.870;2023-02-05T08:32:05;4.10;99.90
23335;DHT22;11839;48.598;8.870;2023-02-05T08:34:32;4.00;99.90
23335;DHT22;11839;48.598;8.870;2023-02-05T08:36:59;4.10;99.90
23335;DHT22;11839;48.598;8.870;2023-02-05T08:39:26;4.20;99.90
23335;DHT22;11839;48.598;8.870;2023-02-05T08:41:53;4.60;99.90
23335;DHT22;11839;48.598;8.870;2023-02-05T08:44:20;4.80;99.90
23335;DHT22;11839;48.598;8.870;2023-02-05T08:46:46;4.70;99.90
23335;DHT22;11839;48.598;8.870;2023-02-05T08:49:15;5.20;99.90
23335;DHT22;11839;48.598;8.870;2023-02-05T08:51:42;5.20;99.90
23335;DHT22;11839;48.598;8.870;2023-02-05T08:54:09;5.70;99.90
23335;DHT22;11839;48.598;8.870;2023-02-05T08:56:37;5.90;99.90
23335;DHT22;11839;48.598;8.870;2023-02-05T08:59:05;5.70;99.90
23335;DHT22;11839;48.598;8.870;2023-02-05T09:01:33;5.70;99.90
23335;DHT22;11839;48.598;8.870;2023-02-05T09:04:01;5.50;99.90
23335;DHT22;11839;48.598;8.870;2023-02-05T09:06:30;5.70;99.90
23335;DHT22;11839;48.598;8.870;2023-02-05T09:08:57;5.80;99.90
23335;DHT22;11839;48.598;8.870;2023-02-05T09:11:24;5.60;99.90
23335;DHT22;11839;48.598;8.870;2023-02-05T09:13:52;5.60;99.90
23335;DHT22;11839;48.598;8.870;2023-02-05T09:16:19;5.20;99.90
23335;DHT22;11839;48.598;8.870;2023-02-05T09:18:45;5.20;99.90
23335;DHT22;11839;48.598;8.870;2023-02-05T09:21:12;4.60;99.90
23335;DHT22;11839;48.598;8.870;2023-02-05T09:23:40;4.70;99.90
23335;DHT22;11839;48.598;8.870;2023-02-05T09:26:07;5.00;99.90
23335;DHT22;11839;48.598;8.870;2023-02-05T09:28:34;4.70;99.90
23335;DHT22;11839;48.598;8.870;2023-02-05T09:31:06;4.50;99.90
23335;DHT22;11839;48.598;8.870;2023-02-05T09:33:33;4.60;99.90
23335;DHT22;11839;48.598;8.870;2023-02-05T09:36:05;4.60;99.90
23335;DHT22;11839;48.598;8.870;2023-02-05T09:38:32;4.80;99.90
23335;DHT22;11839;48.598;8.870;2023-02-05T09:41:03;5.10;99.90
23335;DHT22;11839;48.598;8.870;2023-02-05T09:43:50;5.40;99.90
23335;DHT22;11839;48.598;8.870;2023-02-05T09:46:26;5.50;99.90
23335;DHT22;11839;48.598;8.870;2023-02-05T09:49:01;5.80;99.90
23335;DHT22;11839;48.598;8.870;2023-02-05T09:51:33;5.70;99.90
23335;DHT22;11839;48.598;8.870;2023-02-05T09:54:04;5.70;99.90
23335;DHT22;11839;48.598;8.870;2023-02-05T09:56:37;5.70;99.90
23335;DHT22;11839;48.598;8.870;2023-02-05T09:59:04;5.60;99.90
23335;DHT22;11839;48.598;8.870;2023-02-05T10:01:40;5.40;99.90
23335;DHT22;11839;48.598;8.870;2023-02-05T10:04:08;5.60;99.90
23335;DHT22;11839;48.598;8.870;2023-02-05T10:10:15;5.90;99.90
23335;DHT22;11839;48.598;8.870;2023-02-05T10:16:11;6.30;99.90
23335;DHT22;11839;48.598;8.870;2023-02-05T10:18:55;6.40;99.90
23335;DHT22;11839;48.598;8.870;2023-02-05T10:21:34;6.40;99.90
23335;DHT22;11839;48.598;8.870;2023-02-05T10:24:19;6.40;99.90
23335;DHT22;11839;48.598;8.870;2023-02-05T10:26:49;6.40;99.90
23335;DHT22;11839;48.598;8.870;2023-02-05T10:29:36;6.60;99.90
23335;DHT22;11839;48.598;8.870;2023-02-05T10:32:17;6.80;99.90
23335;DHT22;11839;48.598;8.870;2023-02-05T10:34:51;6.60;99.90
23335;DHT22;11839;48.598;8.870;2023-02-05T10:37:34;6.70;99.90
23335;DHT22;11839;48.598;8.870;2023-02-05T10:40:10;6.90;99.90
23335;DHT22;11839;48.598;8.870;2023-02-05T10:42:40;6.90;99.90
23335;DHT22;11839;48.598;8.870;2023-02-05T10:45:15;6.80;99.90
23335;DHT22;11839;48.598;8.870;2023-02-05T10:50:35;6.80;99.90
23335;DHT22;11839;48.598;8.870;2023-02-05T10:53:09;7.10;99.90
23335;DHT22;11839;48.598;8.870;2023-02-05T10:55:35;7.10;99.90
23335;DHT22;11839;48.598;8.870;2023-02-05T10:58:20;7.30;99.90
23335;DHT22;11839;48.598;8.870;2023-02-05T11:00:51;7.20;99.90
23335;DHT22;11839;48.598;8.870;2023-02-05T11:03:18;6.70;99.90
23335;DHT22;11839;48.598;8.870;2023-02-05T11:05:48;6.90;99.90
23335;DHT22;11839;48.598;8.870;2023-02-05T11:08:33;6.80;99.90
23335;DHT22;11839;48.598;8.870;2023-02-05T11:11:00;6.80;99.90
23335;DHT22;11839;48.598;8.870;2023-02-05T11:13:27;6.90;99.90
23335;DHT22;11839;48.598;8.870;2023-02-05T11:15:58;7.00;99.90
23335;DHT22;11839;48.598;8.870;2023-02-05T11:18:27;7.00;99.90
23335;DHT22;11839;48.598;8.870;2023-02-05T11:20:57;6.50;99.90
23335;DHT22;11839;48.598;8.870;2023-02-05T11:23:26;6.50;99.90
23335;DHT22;11839;48.598;8.870;2023-02-05T11:25:57;6.60;99.90
23335;DHT22;11839;48.598;8.870;2023-02-05T11:28:27;6.60;99.90
23335;DHT22;11839;48.598;8.870;2023-02-05T11:30:56;6.70;99.90
23335;DHT22;11839;48.598;8.870;2023-02-05T11:33:27;6.90;99.90
23335;DHT22;11839;48.598;8.870;2023-02-05T11:35:56;7.20;99.90
23335;DHT22;11839;48.598;8.870;2023-02-05T11:38:28;7.30;99.90
23335;DHT22;11839;48.598;8.870;2023-02-05T11:40:57;7.40;99.90
23335;DHT22;11839;48.598;8.870;2023-02-05T11:43:31;7.50;99.90
23335;DHT22;11839;48.598;8.870;2023-02-05T11:46:02;7.80;99.90
23335;DHT22;11839;48.598;8.870;2023-02-05T11:48:37;7.80;99.90
23335;DHT22;11839;48.598;8.870;2023-02-05T11:51:07;7.90;99.90
23335;DHT22;11839;48.598;8.870;2023-02-05T11:53:35;8.10;99.90
23335;DHT22;11839;48.598;8.870;2023-02-05T11:56:07;7.80;99.90
23335;DHT22;11839;48.598;8.870;2023-02-05T11:58:35;7.60;99.90
23335;DHT22;11839;48.598;8.870;2023-02-05T12:01:15;7.90;99.90
23335;DHT22;11839;48.598;8.870;2023-02-05T12:03:57;7.70;99.90
23335;DHT22;11839;48.598;8.870;2023-02-05T12:06:27;7.80;99.90
23335;DHT22;11839;48.598;8.870;2023-02-05T12:08:56;7.80;99.90
23335;DHT22;11839;48.598;8.870;2023-02-05T12:11:35;7.90;99.90
23335;DHT22;11839;48.598;8.870;2023-02-05T12:14:24;7.90;99.90
23335;DHT22;11839;48.598;8.870;2023-02-05T12:17:03;8.30;99.90
23335;DHT22;11839;48.598;8.870;2023-02-05T12:19:39;8.20;99.90
23335;DHT22;11839;48.598;8.870;2023-02-05T12:22:19;7.90;99.90
23335;DHT22;11839;48.598;8.870;2023-02-05T12:25:00;7.60;99.90
23335;DHT22;11839;48.598;8.870;2023-02-05T12:27:41;7.60;99.90
23335;DHT22;11839;48.598;8.870;2023-02-05T12:30:24;7.60;99.90
23335;DHT22;11839;48.598;8.870;2023-02-05T12:33:00;7.50;99.90
23335;DHT22;11839;48.598;8.870;2023-02-05T12:35:42;7.40;99.90
23335;DHT22;11839;48.598;8.870;2023-02-05T12:38:19;7.60;99.90
23335;DHT22;11839;48.598;8.870;2023-02-05T12:41:00;7.60;99.90
23335;DHT22;11839;48.598;8.870;2023-02-05T12:43:36;7.40;99.90
23335;DHT22;11839;48.598;8.870;2023-02-05T12:46:17;7.30;99.90
23335;DHT22;11839;48.598;8.870;2023-02-05T12:49:00;7.10;99.90
23335;DHT22;11839;48.598;8.870;2023-02-05T12:51:41;6.90;99.90
23335;DHT22;11839;48.598;8.870;2023-02-05T12:54:34;7.30;99.90
23335;DHT22;11839;48.598;8.870;2023-02-05T12:57:04;7.10;99.90
23335;DHT22;11839;48.598;8.870;2023-02-05T12:59:37;7.50;99.90
23335;DHT22;11839;48.598;8.870;2023-02-05T13:02:14;7.60;99.90
23335;DHT22;11839;48.598;8.870;2023-02-05T13:04:49;7.70;99.90
23335;DHT22;11839;48.598;8.870;2023-02-05T13:07:27;7.70;99.90
23335;DHT22;11839;48.598;8.870;2023-02-05T13:09:59;7.70;99.90
23335;DHT22;11839;48.598;8.870;2023-02-05T13:12:30;8.00;99.90
23335;DHT22;11839;48.598;8.870;2023-02-05T13:15:06;7.70;99.90
23335;DHT22;11839;48.598;8.870;2023-02-05T13:17:37;7.80;99.90
23335;DHT22;11839;48.598;8.870;2023-02-05T13:20:18;7.80;99.90
23335;DHT22;11839;48.598;8.870;2023-02-05T13:22:53;7.60;99.90
23335;DHT22;11839;48.598;8.870;2023-02-05T13:25:41;7.70;99.90
23335;DHT22;11839;48.598;8.870;2023-02-05T13:28:36;7.90;99.90
23335;DHT22;11839;48.598;8.870;2023-02-05T13:31:26;7.60;99.90
23335;DHT22;11839;48.598;8.870;2023-02-05T13:33:55;7.50;99.90
23335;DHT22;11839;48.598;8.870;2023-02-05T13:36:56;7.70;99.90
23335;DHT22;11839;48.598;8.870;2023-02-05T13:39:55;7.60;99.90
23335;DHT22;11839;48.598;8.870;2023-02-05T13:45:54;7.40;99.90
23335;DHT22;11839;48.598;8.870;2023-02-05T13:48:46;7.60;99.90
23335;DHT22;11839;48.598;8.870;2023-02-05T14:00:28;7.80;99.90
23335;DHT22;11839;48.598;8.870;2023-02-05T14:02:56;7.70;99.90
23335;DHT22;11839;48.598;8.870;2023-02-05T14:05:32;7.80;99.90
23335;DHT22;11839;48.598;8.870;2023-02-05T14:08:00;8.10;99.90
23335;DHT22;11839;48.598;8.870;2023-02-05T14:10:30;8.00;99.90
23335;DHT22;11839;48.598;8.870;2023-02-05T14:13:19;7.90;99.90
23335;DHT22;11839;48.598;8.870;2023-02-05T14:15:49;7.90;99.90
23335;DHT22;11839;48.598;8.870;2023-02-05T14:18:44;7.30;99.90
23335;DHT22;11839;48.598;8.870;2023-02-05T14:24:27;6.80;99.90
23335;DHT22;11839;48.598;8.870;2023-02-05T14:26:55;6.60;99.90
23335;DHT22;11839;48.598;8.870;2023-02-05T14:29:40;6.60;99.90
23335;DHT22;11839;48.598;8.870;2023-02-05T14:32:09;6.40;99.90
23335;DHT22;11839;48.598;8.870;2023-02-05T14:34:57;6.40;99.90
23335;DHT22;11839;48.598;8.870;2023-02-05T14:37:35;6.20;99.90
23335;DHT22;11839;48.598;8.870;2023-02-05T14:40:21;6.30;99.90
23335;DHT22;11839;48.598;8.870;2023-02-05T14:42:51;6.40;99.90
23335;DHT22;11839;48.598;8.870;2023-02-05T14:45:21;6.50;99.90
23335;DHT22;11839;48.598;8.870;2023-02-05T14:47:49;6.10;99.90
23335;DHT22;11839;48.598;8.870;2023-02-05T14:50:19;5.80;99.90
23335;DHT22;11839;48.598;8.870;2023-02-05T14:52:49;5.70;99.90
23335;DHT22;11839;48.598;8.870;2023-02-05T14:55:20;5.90;99.90
23335;DHT22;11839;48.598;8.870;2023-02-05T14:57:52;5.90;99.90
23335;DHT22;11839;48.598;8.870;2023-02-05T15:00:27;5.40;99.90
23335;DHT22;11839;48.598;8.870;2023-02-05T15:05:56;5.70;99.90
23335;DHT22;11839;48.598;8.870;2023-02-05T15:08:42;6.00;99.90
23335;DHT22;11839;48.598;8.870;2023-02-05T15:11:14;6.00;99.90
23335;DHT22;11839;48.598;8.870;2023-02-05T15:14:48;5.90;99.90
23335;DHT22;11839;48.598;8.870;2023-02-05T15:20:31;6.10;99.90
23335;DHT22;11839;48.598;8.870;2023-02-05T15:23:03;6.20;99.90
23335;DHT22;11839;48.598;8.870;2023-02-05T15:25:36;6.10;99.90
23335;DHT22;11839;48.598;8.870;2023-02-05T15:28:11;6.10;99.90
23335;DHT22;11839;48.598;8.870;2023-02-05T15:30:50;6.00;99.90
23335;DHT22;11839;48.598;8.870;2023-02-05T15:33:26;5.80;99.90
23335;DHT22;11839;48.598;8.870;2023-02-05T15:35:55;5.90;99.90
23335;DHT22;11839;48.598;8.870;2023-02-05T15:38:30;6.00;99.90
23335;DHT22;11839;48.598;8.870;2023-02-05T15:41:00;6.00;99.90
23335;DHT22;11839;48.598;8.870;2023-02-05T15:43:29;6.20;99.90
23335;DHT22;11839;48.598;8.870;2023-02-05T15:46:03;6.00;99.90
23335;DHT22;11839;48.598;8.870;2023-02-05T15:48:33;5.80;99.90
23335;DHT22;11839;48.598;8.870;2023-02-05T15:51:04;5.70;99.90
23335;DHT22;11839;48.598;8.870;2023-02-05T15:53:38;5.60;99.90
23335;DHT22;11839;48.598;8.870;2023-02-05T15:56:14;5.60;99.90
23335;DHT22;11839;48.598;8.870;2023-02-05T15:58:48;5.90;99.90
23335;DHT22;11839;48.598;8.870;2023-02-05T16:01:23;5.90;99.90
23335;DHT22;11839;48.598;8.870;2023-02-05T16:03:50;5.80;99.90
23335;DHT22;11839;48.598;8.870;2023-02-05T16:06:18;5.70;99.90
23335;DHT22;11839;48.598;8.870;2023-02-05T16:08:46;5.60;99.90
23335;DHT22;11839;48.598;8.870;2023-02-05T16:11:25;5.70;99.90
23335;DHT22;11839;48.598;8.870;2023-02-05T16:14:05;5.60;99.90
23335;DHT22;11839;48.598;8.870;2023-02-05T16:16:35;5.60;99.90
23335;DHT22;11839;48.598;8.870;2023-02-05T16:19:05;5.70;99.90
23335;DHT22;11839;48.598;8.870;2023-02-05T16:21:36;5.60;99.90
23335;DHT22;11839;48.598;8.870;2023-02-05T16:24:12;5.70;99.90
23335;DHT22;11839;48.598;8.870;2023-02-05T16:26:45;5.50;99.90
23335;DHT22;11839;48.598;8.870;2023-02-05T16:29:18;5.70;99.90
23335;DHT22;11839;48.598;8.870;2023-02-05T16:31:55;5.70;99.90
23335;DHT22;11839;48.598;8.870;2023-02-05T16:34:23;5.50;99.90
23335;DHT22;11839;48.598;8.870;2023-02-05T16:36:50;5.70;99.90
23335;DHT22;11839;48.598;8.870;2023-02-05T16:39:22;5.80;99.90
23335;DHT22;11839;48.598;8.870;2023-02-05T16:42:03;5.70;99.90